Terminal Aerodrome Forecast
Issued by NWS

Home | Current Version | Previous Version | Text Only | Print | Product List | Glossary On
Versions: 1 2 3 4 5 6 7 8 9 10 11 12 13 14
000
FTUS42 KTAE 221120
TAFECP
TAF
KECP 221120Z 2212/2312 08011KT P6SM SCT007 BKN015
     FM221400 12012G18KT P6SM VCSH SCT007 BKN025
     FM230000 13012G18KT 4SM TSRA BKN025CB
     FM230600 17010KT 6SM -RA OVC007=

USA.gov is the U.S. government's official web portal to all federal, state and local government web resources and services.